sensor_id;sensor_type;location;lat;lon;timestamp;P1;durP1;ratioP1;P2;durP2;ratioP2
14326;SDS011;7247;53.330;-1.180;2023-04-24T00:02:18;10.40;;;3.53;;
14326;SDS011;7247;53.330;-1.180;2023-04-24T00:04:44;10.83;;;4.00;;
14326;SDS011;7247;53.330;-1.180;2023-04-24T00:07:11;10.70;;;3.43;;
14326;SDS011;7247;53.330;-1.180;2023-04-24T00:09:38;11.13;;;3.60;;
14326;SDS011;7247;53.330;-1.180;2023-04-24T00:12:04;10.47;;;4.10;;
14326;SDS011;7247;53.330;-1.180;2023-04-24T00:14:32;8.97;;;3.63;;
14326;SDS011;7247;53.330;-1.180;2023-04-24T00:16:59;9.43;;;3.20;;
14326;SDS011;7247;53.330;-1.180;2023-04-24T00:19:26;11.43;;;3.80;;
14326;SDS011;7247;53.330;-1.180;2023-04-24T00:21:53;8.43;;;3.57;;
14326;SDS011;7247;53.330;-1.180;2023-04-24T00:24:20;9.47;;;3.23;;
14326;SDS011;7247;53.330;-1.180;2023-04-24T00:26:46;11.60;;;3.40;;
14326;SDS011;7247;53.330;-1.180;2023-04-24T00:29:13;6.23;;;3.07;;
14326;SDS011;7247;53.330;-1.180;2023-04-24T00:31:40;6.93;;;2.87;;
14326;SDS011;7247;53.330;-1.180;2023-04-24T00:34:07;12.50;;;3.10;;
14326;SDS011;7247;53.330;-1.180;2023-04-24T00:36:33;11.10;;;3.20;;
14326;SDS011;7247;53.330;-1.180;2023-04-24T00:39:00;5.13;;;2.43;;
14326;SDS011;7247;53.330;-1.180;2023-04-24T00:41:27;8.13;;;2.53;;
14326;SDS011;7247;53.330;-1.180;2023-04-24T00:43:53;7.83;;;2.47;;
14326;SDS011;7247;53.330;-1.180;2023-04-24T00:46:20;9.10;;;2.83;;
14326;SDS011;7247;53.330;-1.180;2023-04-24T00:48:48;5.77;;;2.47;;
14326;SDS011;7247;53.330;-1.180;2023-04-24T00:51:15;5.90;;;2.20;;
14326;SDS011;7247;53.330;-1.180;2023-04-24T00:53:41;7.90;;;2.50;;
14326;SDS011;7247;53.330;-1.180;2023-04-24T00:56:07;6.83;;;2.20;;
14326;SDS011;7247;53.330;-1.180;2023-04-24T00:58:34;7.50;;;2.30;;
14326;SDS011;7247;53.330;-1.180;2023-04-24T01:01:00;7.60;;;2.60;;
14326;SDS011;7247;53.330;-1.180;2023-04-24T01:03:28;5.80;;;2.60;;
14326;SDS011;7247;53.330;-1.180;2023-04-24T01:05:57;8.20;;;2.37;;
14326;SDS011;7247;53.330;-1.180;2023-04-24T01:08:24;5.63;;;2.27;;
14326;SDS011;7247;53.330;-1.180;2023-04-24T01:10:51;7.40;;;2.30;;
14326;SDS011;7247;53.330;-1.180;2023-04-24T01:13:18;6.80;;;2.47;;
14326;SDS011;7247;53.330;-1.180;2023-04-24T01:15:44;4.67;;;2.30;;
14326;SDS011;7247;53.330;-1.180;2023-04-24T01:18:11;9.03;;;2.87;;
14326;SDS011;7247;53.330;-1.180;2023-04-24T01:20:39;7.27;;;2.60;;
14326;SDS011;7247;53.330;-1.180;2023-04-24T01:23:07;5.10;;;2.33;;
14326;SDS011;7247;53.330;-1.180;2023-04-24T01:25:33;7.30;;;2.60;;
14326;SDS011;7247;53.330;-1.180;2023-04-24T01:28:00;8.07;;;2.60;;
14326;SDS011;7247;53.330;-1.180;2023-04-24T01:30:27;6.03;;;2.30;;
14326;SDS011;7247;53.330;-1.180;2023-04-24T01:32:53;5.93;;;2.40;;
14326;SDS011;7247;53.330;-1.180;2023-04-24T01:35:20;5.50;;;2.20;;
14326;SDS011;7247;53.330;-1.180;2023-04-24T01:37:47;6.03;;;2.53;;
14326;SDS011;7247;53.330;-1.180;2023-04-24T01:40:15;9.10;;;3.00;;
14326;SDS011;7247;53.330;-1.180;2023-04-24T01:42:41;4.87;;;2.50;;
14326;SDS011;7247;53.330;-1.180;2023-04-24T01:45:08;7.03;;;2.33;;
14326;SDS011;7247;53.330;-1.180;2023-04-24T01:47:36;7.83;;;2.50;;
14326;SDS011;7247;53.330;-1.180;2023-04-24T01:50:03;5.93;;;2.17;;
14326;SDS011;7247;53.330;-1.180;2023-04-24T01:52:29;5.80;;;2.43;;
14326;SDS011;7247;53.330;-1.180;2023-04-24T01:54:59;5.53;;;2.57;;
14326;SDS011;7247;53.330;-1.180;2023-04-24T01:57:26;9.87;;;2.20;;
14326;SDS011;7247;53.330;-1.180;2023-04-24T01:59:55;7.33;;;2.47;;
14326;SDS011;7247;53.330;-1.180;2023-04-24T02:02:21;4.47;;;1.90;;
14326;SDS011;7247;53.330;-1.180;2023-04-24T02:04:49;5.80;;;2.30;;
14326;SDS011;7247;53.330;-1.180;2023-04-24T02:07:15;7.97;;;2.23;;
14326;SDS011;7247;53.330;-1.180;2023-04-24T02:09:41;9.60;;;2.27;;
14326;SDS011;7247;53.330;-1.180;2023-04-24T02:12:08;6.17;;;2.43;;
14326;SDS011;7247;53.330;-1.180;2023-04-24T02:14:35;11.43;;;2.30;;
14326;SDS011;7247;53.330;-1.180;2023-04-24T02:17:02;4.97;;;2.20;;
14326;SDS011;7247;53.330;-1.180;2023-04-24T02:19:28;6.80;;;2.40;;
14326;SDS011;7247;53.330;-1.180;2023-04-24T02:21:55;7.93;;;2.90;;
14326;SDS011;7247;53.330;-1.180;2023-04-24T02:24:21;8.23;;;2.20;;
14326;SDS011;7247;53.330;-1.180;2023-04-24T02:26:47;8.33;;;1.83;;
14326;SDS011;7247;53.330;-1.180;2023-04-24T02:29:14;7.77;;;2.30;;
14326;SDS011;7247;53.330;-1.180;2023-04-24T02:31:42;7.93;;;2.40;;
14326;SDS011;7247;53.330;-1.180;2023-04-24T02:34:08;7.93;;;2.20;;
14326;SDS011;7247;53.330;-1.180;2023-04-24T02:36:35;8.53;;;2.80;;
14326;SDS011;7247;53.330;-1.180;2023-04-24T02:39:01;4.53;;;2.10;;
14326;SDS011;7247;53.330;-1.180;2023-04-24T02:41:28;8.00;;;2.20;;
14326;SDS011;7247;53.330;-1.180;2023-04-24T02:43:57;5.97;;;2.10;;
14326;SDS011;7247;53.330;-1.180;2023-04-24T02:46:23;6.20;;;2.20;;
14326;SDS011;7247;53.330;-1.180;2023-04-24T02:48:51;6.90;;;2.20;;
14326;SDS011;7247;53.330;-1.180;2023-04-24T02:51:17;8.77;;;2.03;;
14326;SDS011;7247;53.330;-1.180;2023-04-24T02:53:44;6.67;;;2.07;;
14326;SDS011;7247;53.330;-1.180;2023-04-24T02:56:10;10.00;;;1.97;;
14326;SDS011;7247;53.330;-1.180;2023-04-24T02:58:37;5.57;;;2.00;;
14326;SDS011;7247;53.330;-1.180;2023-04-24T03:01:03;6.73;;;2.20;;
14326;SDS011;7247;53.330;-1.180;2023-04-24T03:03:30;7.03;;;2.27;;
14326;SDS011;7247;53.330;-1.180;2023-04-24T03:05:58;4.93;;;2.07;;
14326;SDS011;7247;53.330;-1.180;2023-04-24T03:08:24;8.37;;;2.37;;
14326;SDS011;7247;53.330;-1.180;2023-04-24T03:10:51;5.77;;;1.90;;
14326;SDS011;7247;53.330;-1.180;2023-04-24T03:13:17;6.20;;;2.07;;
14326;SDS011;7247;53.330;-1.180;2023-04-24T03:15:44;5.87;;;2.70;;
14326;SDS011;7247;53.330;-1.180;2023-04-24T03:18:11;9.20;;;2.10;;
14326;SDS011;7247;53.330;-1.180;2023-04-24T03:20:37;10.37;;;3.03;;
14326;SDS011;7247;53.330;-1.180;2023-04-24T03:23:05;9.97;;;3.00;;
14326;SDS011;7247;53.330;-1.180;2023-04-24T03:25:32;4.50;;;2.00;;
14326;SDS011;7247;53.330;-1.180;2023-04-24T03:27:58;4.93;;;2.20;;
14326;SDS011;7247;53.330;-1.180;2023-04-24T03:30:24;5.93;;;2.10;;
14326;SDS011;7247;53.330;-1.180;2023-04-24T03:32:51;8.07;;;2.40;;
14326;SDS011;7247;53.330;-1.180;2023-04-24T03:35:17;8.17;;;2.03;;
14326;SDS011;7247;53.330;-1.180;2023-04-24T03:37:43;7.17;;;2.30;;
14326;SDS011;7247;53.330;-1.180;2023-04-24T03:40:11;9.03;;;2.10;;
14326;SDS011;7247;53.330;-1.180;2023-04-24T03:42:38;5.87;;;2.10;;
14326;SDS011;7247;53.330;-1.180;2023-04-24T03:45:05;6.37;;;2.23;;
14326;SDS011;7247;53.330;-1.180;2023-04-24T03:47:31;8.10;;;2.13;;
14326;SDS011;7247;53.330;-1.180;2023-04-24T03:49:58;7.37;;;2.10;;
14326;SDS011;7247;53.330;-1.180;2023-04-24T03:52:24;5.43;;;2.10;;
14326;SDS011;7247;53.330;-1.180;2023-04-24T03:54:50;10.37;;;2.87;;
14326;SDS011;7247;53.330;-1.180;2023-04-24T03:57:18;6.67;;;2.20;;
14326;SDS011;7247;53.330;-1.180;2023-04-24T03:59:45;7.73;;;2.47;;
14326;SDS011;7247;53.330;-1.180;2023-04-24T04:02:11;7.80;;;2.50;;
14326;SDS011;7247;53.330;-1.180;2023-04-24T04:04:37;6.13;;;2.30;;
14326;SDS011;7247;53.330;-1.180;2023-04-24T04:07:04;7.67;;;2.30;;
14326;SDS011;7247;53.330;-1.180;2023-04-24T04:09:30;8.43;;;2.23;;
14326;SDS011;7247;53.330;-1.180;2023-04-24T04:11:57;14.37;;;2.87;;
14326;SDS011;7247;53.330;-1.180;2023-04-24T04:14:25;10.47;;;2.40;;
14326;SDS011;7247;53.330;-1.180;2023-04-24T04:16:51;10.07;;;2.40;;
14326;SDS011;7247;53.330;-1.180;2023-04-24T04:19:18;8.53;;;2.43;;
14326;SDS011;7247;53.330;-1.180;2023-04-24T04:21:44;7.10;;;2.07;;
14326;SDS011;7247;53.330;-1.180;2023-04-24T04:24:15;7.83;;;2.17;;
14326;SDS011;7247;53.330;-1.180;2023-04-24T04:26:42;5.53;;;1.93;;
14326;SDS011;7247;53.330;-1.180;2023-04-24T04:29:12;7.83;;;2.40;;
14326;SDS011;7247;53.330;-1.180;2023-04-24T04:31:39;8.00;;;2.50;;
14326;SDS011;7247;53.330;-1.180;2023-04-24T04:34:06;5.20;;;2.40;;
14326;SDS011;7247;53.330;-1.180;2023-04-24T04:36:32;11.43;;;2.60;;
14326;SDS011;7247;53.330;-1.180;2023-04-24T04:39:01;7.87;;;2.50;;
14326;SDS011;7247;53.330;-1.180;2023-04-24T04:41:29;8.50;;;2.40;;
14326;SDS011;7247;53.330;-1.180;2023-04-24T04:43:55;6.03;;;2.20;;
14326;SDS011;7247;53.330;-1.180;2023-04-24T04:46:23;7.17;;;2.33;;
14326;SDS011;7247;53.330;-1.180;2023-04-24T04:48:52;8.57;;;2.50;;
14326;SDS011;7247;53.330;-1.180;2023-04-24T04:51:19;6.43;;;2.30;;
14326;SDS011;7247;53.330;-1.180;2023-04-24T04:53:45;7.43;;;2.27;;
14326;SDS011;7247;53.330;-1.180;2023-04-24T04:56:12;6.17;;;2.10;;
14326;SDS011;7247;53.330;-1.180;2023-04-24T04:58:38;5.57;;;2.20;;
14326;SDS011;7247;53.330;-1.180;2023-04-24T05:01:05;9.00;;;2.67;;
14326;SDS011;7247;53.330;-1.180;2023-04-24T05:03:31;5.70;;;2.03;;
14326;SDS011;7247;53.330;-1.180;2023-04-24T05:05:59;7.90;;;2.40;;
14326;SDS011;7247;53.330;-1.180;2023-04-24T05:08:26;4.43;;;2.40;;
14326;SDS011;7247;53.330;-1.180;2023-04-24T05:10:52;6.57;;;2.20;;
14326;SDS011;7247;53.330;-1.180;2023-04-24T05:13:19;5.53;;;2.13;;
14326;SDS011;7247;53.330;-1.180;2023-04-24T05:15:45;6.60;;;2.30;;
14326;SDS011;7247;53.330;-1.180;2023-04-24T05:18:11;7.00;;;2.20;;
14326;SDS011;7247;53.330;-1.180;2023-04-24T05:20:38;7.17;;;2.30;;
14326;SDS011;7247;53.330;-1.180;2023-04-24T05:23:06;7.23;;;2.47;;
14326;SDS011;7247;53.330;-1.180;2023-04-24T05:25:32;7.00;;;2.30;;
14326;SDS011;7247;53.330;-1.180;2023-04-24T05:28:00;8.13;;;2.10;;
14326;SDS011;7247;53.330;-1.180;2023-04-24T05:30:26;4.73;;;2.37;;
14326;SDS011;7247;53.330;-1.180;2023-04-24T05:32:53;6.87;;;2.67;;
14326;SDS011;7247;53.330;-1.180;2023-04-24T05:35:19;9.53;;;2.60;;
14326;SDS011;7247;53.330;-1.180;2023-04-24T05:37:46;6.77;;;2.30;;
14326;SDS011;7247;53.330;-1.180;2023-04-24T05:40:14;6.13;;;2.07;;
14326;SDS011;7247;53.330;-1.180;2023-04-24T05:42:40;5.63;;;2.20;;
14326;SDS011;7247;53.330;-1.180;2023-04-24T05:45:07;8.43;;;2.70;;
14326;SDS011;7247;53.330;-1.180;2023-04-24T05:47:34;8.63;;;2.40;;
14326;SDS011;7247;53.330;-1.180;2023-04-24T05:50:00;7.73;;;2.67;;
14326;SDS011;7247;53.330;-1.180;2023-04-24T05:52:27;6.97;;;2.27;;
14326;SDS011;7247;53.330;-1.180;2023-04-24T05:54:53;7.13;;;2.10;;
14326;SDS011;7247;53.330;-1.180;2023-04-24T05:57:22;6.70;;;2.77;;
14326;SDS011;7247;53.330;-1.180;2023-04-24T05:59:48;5.60;;;2.57;;
14326;SDS011;7247;53.330;-1.180;2023-04-24T06:02:14;6.83;;;2.73;;
14326;SDS011;7247;53.330;-1.180;2023-04-24T06:04:41;8.87;;;2.77;;
14326;SDS011;7247;53.330;-1.180;2023-04-24T06:07:08;9.87;;;2.60;;
14326;SDS011;7247;53.330;-1.180;2023-04-24T06:09:35;9.90;;;2.73;;
14326;SDS011;7247;53.330;-1.180;2023-04-24T06:12:01;8.27;;;2.50;;
14326;SDS011;7247;53.330;-1.180;2023-04-24T06:14:30;6.70;;;2.50;;
14326;SDS011;7247;53.330;-1.180;2023-04-24T06:16:56;7.30;;;2.73;;
14326;SDS011;7247;53.330;-1.180;2023-04-24T06:19:22;6.10;;;2.57;;
14326;SDS011;7247;53.330;-1.180;2023-04-24T06:21:49;7.30;;;2.53;;
14326;SDS011;7247;53.330;-1.180;2023-04-24T06:24:15;10.13;;;2.60;;
14326;SDS011;7247;53.330;-1.180;2023-04-24T06:26:42;9.33;;;2.90;;
14326;SDS011;7247;53.330;-1.180;2023-04-24T06:29:08;10.93;;;2.83;;
14326;SDS011;7247;53.330;-1.180;2023-04-24T06:31:36;9.23;;;2.60;;
14326;SDS011;7247;53.330;-1.180;2023-04-24T06:34:02;9.50;;;2.60;;
14326;SDS011;7247;53.330;-1.180;2023-04-24T06:36:29;8.47;;;2.73;;
14326;SDS011;7247;53.330;-1.180;2023-04-24T06:38:56;9.07;;;3.17;;
14326;SDS011;7247;53.330;-1.180;2023-04-24T06:41:22;8.00;;;2.63;;
14326;SDS011;7247;53.330;-1.180;2023-04-24T06:43:49;7.83;;;2.93;;
14326;SDS011;7247;53.330;-1.180;2023-04-24T06:46:15;9.10;;;2.63;;
14326;SDS011;7247;53.330;-1.180;2023-04-24T06:48:43;8.97;;;2.83;;
14326;SDS011;7247;53.330;-1.180;2023-04-24T06:51:09;9.73;;;2.90;;
14326;SDS011;7247;53.330;-1.180;2023-04-24T06:53:36;9.60;;;3.17;;
14326;SDS011;7247;53.330;-1.180;2023-04-24T06:56:03;11.87;;;2.77;;
14326;SDS011;7247;53.330;-1.180;2023-04-24T06:58:30;7.63;;;2.77;;
14326;SDS011;7247;53.330;-1.180;2023-04-24T07:00:56;7.40;;;3.13;;
14326;SDS011;7247;53.330;-1.180;2023-04-24T07:03:23;9.53;;;2.77;;
14326;SDS011;7247;53.330;-1.180;2023-04-24T07:05:51;13.10;;;2.97;;
14326;SDS011;7247;53.330;-1.180;2023-04-24T07:08:18;8.47;;;3.00;;
14326;SDS011;7247;53.330;-1.180;2023-04-24T07:10:45;7.43;;;3.10;;
14326;SDS011;7247;53.330;-1.180;2023-04-24T07:13:12;9.00;;;2.67;;
14326;SDS011;7247;53.330;-1.180;2023-04-24T07:15:38;10.53;;;3.37;;
14326;SDS011;7247;53.330;-1.180;2023-04-24T07:18:06;8.70;;;3.00;;
14326;SDS011;7247;53.330;-1.180;2023-04-24T07:20:32;10.97;;;3.57;;
14326;SDS011;7247;53.330;-1.180;2023-04-24T07:23:01;10.63;;;3.33;;
14326;SDS011;7247;53.330;-1.180;2023-04-24T07:25:27;10.60;;;3.13;;
14326;SDS011;7247;53.330;-1.180;2023-04-24T07:27:53;8.67;;;3.60;;
14326;SDS011;7247;53.330;-1.180;2023-04-24T07:30:20;15.20;;;3.67;;
14326;SDS011;7247;53.330;-1.180;2023-04-24T07:32:46;10.43;;;3.57;;
14326;SDS011;7247;53.330;-1.180;2023-04-24T07:35:12;9.50;;;3.50;;
14326;SDS011;7247;53.330;-1.180;2023-04-24T07:37:39;14.57;;;3.47;;
14326;SDS011;7247;53.330;-1.180;2023-04-24T07:40:12;12.17;;;3.10;;
14326;SDS011;7247;53.330;-1.180;2023-04-24T07:42:38;9.27;;;3.10;;
14326;SDS011;7247;53.330;-1.180;2023-04-24T07:45:05;8.63;;;3.27;;
14326;SDS011;7247;53.330;-1.180;2023-04-24T07:47:32;11.47;;;3.40;;
14326;SDS011;7247;53.330;-1.180;2023-04-24T07:49:58;11.50;;;4.10;;
14326;SDS011;7247;53.330;-1.180;2023-04-24T07:52:25;13.57;;;3.70;;
14326;SDS011;7247;53.330;-1.180;2023-04-24T07:54:51;12.47;;;3.83;;
14326;SDS011;7247;53.330;-1.180;2023-04-24T07:57:25;13.57;;;3.50;;
14326;SDS011;7247;53.330;-1.180;2023-04-24T07:59:51;12.07;;;3.30;;
14326;SDS011;7247;53.330;-1.180;2023-04-24T08:02:17;12.50;;;3.67;;
14326;SDS011;7247;53.330;-1.180;2023-04-24T08:04:44;8.07;;;3.20;;
14326;SDS011;7247;53.330;-1.180;2023-04-24T08:07:10;11.07;;;3.37;;
14326;SDS011;7247;53.330;-1.180;2023-04-24T08:09:37;12.00;;;3.43;;
14326;SDS011;7247;53.330;-1.180;2023-04-24T08:12:04;13.40;;;3.63;;
14326;SDS011;7247;53.330;-1.180;2023-04-24T08:14:32;10.90;;;3.23;;
14326;SDS011;7247;53.330;-1.180;2023-04-24T08:16:58;11.87;;;4.37;;
14326;SDS011;7247;53.330;-1.180;2023-04-24T08:19:25;14.40;;;3.30;;
14326;SDS011;7247;53.330;-1.180;2023-04-24T08:21:52;7.07;;;3.10;;
14326;SDS011;7247;53.330;-1.180;2023-04-24T08:24:18;11.83;;;3.80;;
14326;SDS011;7247;53.330;-1.180;2023-04-24T08:26:45;9.53;;;3.00;;
14326;SDS011;7247;53.330;-1.180;2023-04-24T08:29:11;14.70;;;3.30;;
14326;SDS011;7247;53.330;-1.180;2023-04-24T08:31:39;14.20;;;3.70;;
14326;SDS011;7247;53.330;-1.180;2023-04-24T08:34:05;9.83;;;3.57;;
14326;SDS011;7247;53.330;-1.180;2023-04-24T08:36:32;11.93;;;3.90;;
14326;SDS011;7247;53.330;-1.180;2023-04-24T08:38:58;13.43;;;3.47;;
14326;SDS011;7247;53.330;-1.180;2023-04-24T08:41:25;16.83;;;3.87;;
14326;SDS011;7247;53.330;-1.180;2023-04-24T08:43:53;9.67;;;3.57;;
14326;SDS011;7247;53.330;-1.180;2023-04-24T08:46:20;11.80;;;3.40;;
14326;SDS011;7247;53.330;-1.180;2023-04-24T08:48:48;10.23;;;3.63;;
14326;SDS011;7247;53.330;-1.180;2023-04-24T08:51:15;8.30;;;3.23;;
14326;SDS011;7247;53.330;-1.180;2023-04-24T08:53:42;15.40;;;3.43;;
14326;SDS011;7247;53.330;-1.180;2023-04-24T08:56:09;8.20;;;3.13;;
14326;SDS011;7247;53.330;-1.180;2023-04-24T08:58:37;11.07;;;3.17;;
14326;SDS011;7247;53.330;-1.180;2023-04-24T09:01:04;8.53;;;3.70;;
14326;SDS011;7247;53.330;-1.180;2023-04-24T09:03:30;10.70;;;3.50;;
14326;SDS011;7247;53.330;-1.180;2023-04-24T09:05:58;10.47;;;3.47;;
14326;SDS011;7247;53.330;-1.180;2023-04-24T09:08:25;9.53;;;3.33;;
14326;SDS011;7247;53.330;-1.180;2023-04-24T09:10:52;12.13;;;3.50;;
14326;SDS011;7247;53.330;-1.180;2023-04-24T09:13:19;11.13;;;3.23;;
14326;SDS011;7247;53.330;-1.180;2023-04-24T09:15:45;9.27;;;3.20;;
14326;SDS011;7247;53.330;-1.180;2023-04-24T09:18:12;9.63;;;3.20;;
14326;SDS011;7247;53.330;-1.180;2023-04-24T09:23:21;10.57;;;3.17;;
14326;SDS011;7247;53.330;-1.180;2023-04-24T09:25:48;9.90;;;3.40;;
14326;SDS011;7247;53.330;-1.180;2023-04-24T09:28:20;12.27;;;3.20;;
14326;SDS011;7247;53.330;-1.180;2023-04-24T09:31:01;11.93;;;3.20;;
14326;SDS011;7247;53.330;-1.180;2023-04-24T09:33:29;8.90;;;3.10;;
14326;SDS011;7247;53.330;-1.180;2023-04-24T09:35:55;7.77;;;3.17;;
14326;SDS011;7247;53.330;-1.180;2023-04-24T09:38:30;10.23;;;3.37;;
14326;SDS011;7247;53.330;-1.180;2023-04-24T09:40:58;12.33;;;3.30;;
14326;SDS011;7247;53.330;-1.180;2023-04-24T09:43:25;8.20;;;2.80;;
14326;SDS011;7247;53.330;-1.180;2023-04-24T09:45:53;9.20;;;3.57;;
14326;SDS011;7247;53.330;-1.180;2023-04-24T09:48:29;13.00;;;3.63;;
14326;SDS011;7247;53.330;-1.180;2023-04-24T09:50:55;9.80;;;3.27;;
14326;SDS011;7247;53.330;-1.180;2023-04-24T09:53:23;7.87;;;3.37;;
14326;SDS011;7247;53.330;-1.180;2023-04-24T09:55:51;12.67;;;3.70;;
14326;SDS011;7247;53.330;-1.180;2023-04-24T09:58:18;11.17;;;3.83;;
14326;SDS011;7247;53.330;-1.180;2023-04-24T10:00:44;19.47;;;4.03;;
14326;SDS011;7247;53.330;-1.180;2023-04-24T10:03:11;12.20;;;4.00;;
14326;SDS011;7247;53.330;-1.180;2023-04-24T10:05:38;11.23;;;3.40;;
14326;SDS011;7247;53.330;-1.180;2023-04-24T10:08:05;10.10;;;3.57;;
14326;SDS011;7247;53.330;-1.180;2023-04-24T10:10:32;10.73;;;3.20;;
14326;SDS011;7247;53.330;-1.180;2023-04-24T10:13:00;10.17;;;2.93;;
14326;SDS011;7247;53.330;-1.180;2023-04-24T10:15:26;9.97;;;3.77;;
14326;SDS011;7247;53.330;-1.180;2023-04-24T10:17:53;10.50;;;3.23;;
14326;SDS011;7247;53.330;-1.180;2023-04-24T10:20:20;10.90;;;3.50;;
14326;SDS011;7247;53.330;-1.180;2023-04-24T10:22:48;9.93;;;3.73;;
14326;SDS011;7247;53.330;-1.180;2023-04-24T10:25:16;12.50;;;3.33;;
14326;SDS011;7247;53.330;-1.180;2023-04-24T10:27:42;8.10;;;2.93;;
14326;SDS011;7247;53.330;-1.180;2023-04-24T10:30:11;9.50;;;3.27;;
14326;SDS011;7247;53.330;-1.180;2023-04-24T10:32:38;11.57;;;3.87;;
14326;SDS011;7247;53.330;-1.180;2023-04-24T10:35:05;11.33;;;3.77;;
14326;SDS011;7247;53.330;-1.180;2023-04-24T10:37:34;10.93;;;3.43;;
14326;SDS011;7247;53.330;-1.180;2023-04-24T10:40:01;11.60;;;3.80;;
14326;SDS011;7247;53.330;-1.180;2023-04-24T10:42:27;12.60;;;4.20;;
14326;SDS011;7247;53.330;-1.180;2023-04-24T10:44:54;11.67;;;4.03;;
14326;SDS011;7247;53.330;-1.180;2023-04-24T10:47:22;15.00;;;4.10;;
14326;SDS011;7247;53.330;-1.180;2023-04-24T10:49:50;8.87;;;3.50;;
14326;SDS011;7247;53.330;-1.180;2023-04-24T10:52:16;8.53;;;3.83;;
14326;SDS011;7247;53.330;-1.180;2023-04-24T10:54:44;11.57;;;3.97;;
14326;SDS011;7247;53.330;-1.180;2023-04-24T10:57:26;9.10;;;3.50;;
14326;SDS011;7247;53.330;-1.180;2023-04-24T11:02:36;12.10;;;3.90;;
14326;SDS011;7247;53.330;-1.180;2023-04-24T11:05:03;10.00;;;3.80;;
14326;SDS011;7247;53.330;-1.180;2023-04-24T11:07:30;11.60;;;3.83;;
14326;SDS011;7247;53.330;-1.180;2023-04-24T11:10:26;11.07;;;3.87;;
14326;SDS011;7247;53.330;-1.180;2023-04-24T11:12:52;8.90;;;3.10;;
14326;SDS011;7247;53.330;-1.180;2023-04-24T11:15:19;11.33;;;3.70;;
14326;SDS011;7247;53.330;-1.180;2023-04-24T11:17:45;8.30;;;3.17;;
14326;SDS011;7247;53.330;-1.180;2023-04-24T11:20:16;8.77;;;3.13;;
14326;SDS011;7247;53.330;-1.180;2023-04-24T11:22:42;10.83;;;3.50;;
14326;SDS011;7247;53.330;-1.180;2023-04-24T11:25:09;12.97;;;4.13;;
14326;SDS011;7247;53.330;-1.180;2023-04-24T11:27:40;12.00;;;3.80;;
14326;SDS011;7247;53.330;-1.180;2023-04-24T11:30:07;12.03;;;3.87;;
14326;SDS011;7247;53.330;-1.180;2023-04-24T11:32:34;11.07;;;3.87;;
14326;SDS011;7247;53.330;-1.180;2023-04-24T11:35:02;8.77;;;4.00;;
14326;SDS011;7247;53.330;-1.180;2023-04-24T11:37:33;10.23;;;3.80;;
14326;SDS011;7247;53.330;-1.180;2023-04-24T11:40:00;11.70;;;3.40;;
14326;SDS011;7247;53.330;-1.180;2023-04-24T11:42:27;5.50;;;3.00;;
14326;SDS011;7247;53.330;-1.180;2023-04-24T11:44:55;9.77;;;3.67;;
14326;SDS011;7247;53.330;-1.180;2023-04-24T11:47:28;10.63;;;3.07;;
14326;SDS011;7247;53.330;-1.180;2023-04-24T11:49:55;8.13;;;3.20;;
14326;SDS011;7247;53.330;-1.180;2023-04-24T11:52:22;7.10;;;2.87;;
14326;SDS011;7247;53.330;-1.180;2023-04-24T11:54:48;13.20;;;3.37;;
14326;SDS011;7247;53.330;-1.180;2023-04-24T11:57:16;9.53;;;3.23;;
14326;SDS011;7247;53.330;-1.180;2023-04-24T11:59:42;8.40;;;3.10;;
14326;SDS011;7247;53.330;-1.180;2023-04-24T12:02:10;9.43;;;3.20;;
14326;SDS011;7247;53.330;-1.180;2023-04-24T12:04:45;9.00;;;3.13;;
14326;SDS011;7247;53.330;-1.180;2023-04-24T12:07:12;7.13;;;2.83;;
14326;SDS011;7247;53.330;-1.180;2023-04-24T12:09:41;10.77;;;3.10;;
14326;SDS011;7247;53.330;-1.180;2023-04-24T12:12:08;8.27;;;2.93;;
14326;SDS011;7247;53.330;-1.180;2023-04-24T12:14:41;7.63;;;3.00;;
14326;SDS011;7247;53.330;-1.180;2023-04-24T12:17:09;7.63;;;3.30;;
14326;SDS011;7247;53.330;-1.180;2023-04-24T12:19:36;7.20;;;3.13;;
14326;SDS011;7247;53.330;-1.180;2023-04-24T12:22:03;12.27;;;4.13;;
14326;SDS011;7247;53.330;-1.180;2023-04-24T12:24:30;8.57;;;3.23;;
14326;SDS011;7247;53.330;-1.180;2023-04-24T12:26:57;6.80;;;2.90;;
14326;SDS011;7247;53.330;-1.180;2023-04-24T12:29:23;9.57;;;3.77;;
14326;SDS011;7247;53.330;-1.180;2023-04-24T12:31:51;8.27;;;3.13;;
14326;SDS011;7247;53.330;-1.180;2023-04-24T12:34:19;8.00;;;3.03;;
14326;SDS011;7247;53.330;-1.180;2023-04-24T12:36:46;9.90;;;2.83;;
14326;SDS011;7247;53.330;-1.180;2023-04-24T12:39:15;10.57;;;2.87;;
14326;SDS011;7247;53.330;-1.180;2023-04-24T12:41:50;8.27;;;3.00;;
14326;SDS011;7247;53.330;-1.180;2023-04-24T12:44:16;6.50;;;2.77;;
14326;SDS011;7247;53.330;-1.180;2023-04-24T12:46:43;9.00;;;3.03;;
14326;SDS011;7247;53.330;-1.180;2023-04-24T12:49:10;8.70;;;3.20;;
14326;SDS011;7247;53.330;-1.180;2023-04-24T12:51:37;9.50;;;2.80;;
14326;SDS011;7247;53.330;-1.180;2023-04-24T12:54:04;7.30;;;2.70;;
14326;SDS011;7247;53.330;-1.180;2023-04-24T12:56:31;8.83;;;2.60;;
14326;SDS011;7247;53.330;-1.180;2023-04-24T12:58:57;10.10;;;2.90;;
14326;SDS011;7247;53.330;-1.180;2023-04-24T13:01:24;8.00;;;2.60;;
14326;SDS011;7247;53.330;-1.180;2023-04-24T13:03:50;7.00;;;2.73;;
14326;SDS011;7247;53.330;-1.180;2023-04-24T13:06:17;8.03;;;2.80;;
14326;SDS011;7247;53.330;-1.180;2023-04-24T13:08:44;8.20;;;2.87;;
14326;SDS011;7247;53.330;-1.180;2023-04-24T13:11:12;7.10;;;2.50;;
14326;SDS011;7247;53.330;-1.180;2023-04-24T13:13:38;6.40;;;2.70;;
14326;SDS011;7247;53.330;-1.180;2023-04-24T13:16:05;8.17;;;2.63;;
14326;SDS011;7247;53.330;-1.180;2023-04-24T13:18:31;7.93;;;2.87;;
14326;SDS011;7247;53.330;-1.180;2023-04-24T13:20:58;10.57;;;3.30;;
14326;SDS011;7247;53.330;-1.180;2023-04-24T13:23:24;9.23;;;2.60;;
14326;SDS011;7247;53.330;-1.180;2023-04-24T13:25:52;9.27;;;3.43;;
14326;SDS011;7247;53.330;-1.180;2023-04-24T13:28:22;6.07;;;2.70;;
14326;SDS011;7247;53.330;-1.180;2023-04-24T13:30:49;7.20;;;3.10;;
14326;SDS011;7247;53.330;-1.180;2023-04-24T13:33:16;10.63;;;3.33;;
14326;SDS011;7247;53.330;-1.180;2023-04-24T13:35:42;6.47;;;3.27;;
14326;SDS011;7247;53.330;-1.180;2023-04-24T13:38:08;9.77;;;3.40;;
14326;SDS011;7247;53.330;-1.180;2023-04-24T13:40:35;12.30;;;3.47;;
14326;SDS011;7247;53.330;-1.180;2023-04-24T13:43:03;9.57;;;3.37;;
14326;SDS011;7247;53.330;-1.180;2023-04-24T13:45:29;11.97;;;3.70;;
14326;SDS011;7247;53.330;-1.180;2023-04-24T13:47:55;7.93;;;3.30;;
14326;SDS011;7247;53.330;-1.180;2023-04-24T13:50:22;8.07;;;2.70;;
14326;SDS011;7247;53.330;-1.180;2023-04-24T13:52:49;8.33;;;2.73;;
14326;SDS011;7247;53.330;-1.180;2023-04-24T13:55:15;8.47;;;2.53;;
14326;SDS011;7247;53.330;-1.180;2023-04-24T13:57:42;9.47;;;2.80;;
14326;SDS011;7247;53.330;-1.180;2023-04-24T14:00:10;9.17;;;2.60;;
14326;SDS011;7247;53.330;-1.180;2023-04-24T14:02:37;10.13;;;2.67;;
14326;SDS011;7247;53.330;-1.180;2023-04-24T14:05:03;9.87;;;2.73;;
14326;SDS011;7247;53.330;-1.180;2023-04-24T14:07:30;9.90;;;3.30;;
14326;SDS011;7247;53.330;-1.180;2023-04-24T14:09:57;8.63;;;3.00;;
14326;SDS011;7247;53.330;-1.180;2023-04-24T14:12:23;12.77;;;3.57;;
14326;SDS011;7247;53.330;-1.180;2023-04-24T14:14:50;9.63;;;2.93;;
14326;SDS011;7247;53.330;-1.180;2023-04-24T14:17:18;8.37;;;3.07;;
14326;SDS011;7247;53.330;-1.180;2023-04-24T14:19:45;11.17;;;2.73;;
14326;SDS011;7247;53.330;-1.180;2023-04-24T14:22:11;8.43;;;3.00;;
14326;SDS011;7247;53.330;-1.180;2023-04-24T14:24:38;8.57;;;2.93;;
14326;SDS011;7247;53.330;-1.180;2023-04-24T14:27:04;8.67;;;3.37;;
14326;SDS011;7247;53.330;-1.180;2023-04-24T14:29:31;9.77;;;3.03;;
14326;SDS011;7247;53.330;-1.180;2023-04-24T14:31:57;7.30;;;2.80;;
14326;SDS011;7247;53.330;-1.180;2023-04-24T14:34:25;10.23;;;2.63;;
14326;SDS011;7247;53.330;-1.180;2023-04-24T14:36:52;5.80;;;2.60;;
14326;SDS011;7247;53.330;-1.180;2023-04-24T14:39:18;7.87;;;2.53;;
14326;SDS011;7247;53.330;-1.180;2023-04-24T14:41:45;6.83;;;2.50;;
14326;SDS011;7247;53.330;-1.180;2023-04-24T14:44:11;7.50;;;2.60;;
14326;SDS011;7247;53.330;-1.180;2023-04-24T14:46:38;6.60;;;2.20;;
14326;SDS011;7247;53.330;-1.180;2023-04-24T14:49:04;7.67;;;2.77;;